sensor_id;sensor_type;location;lat;lon;timestamp;P1;durP1;ratioP1;P2;durP2;ratioP2
31083;SDS011;36333;51.382;0.016;2022-12-07T00:01:41;24.73;;;11.32;;
31083;SDS011;36333;51.382;0.016;2022-12-07T00:04:10;31.67;;;12.27;;
31083;SDS011;36333;51.382;0.016;2022-12-07T00:06:40;29.17;;;12.38;;
31083;SDS011;36333;51.382;0.016;2022-12-07T00:09:10;22.15;;;11.63;;
31083;SDS011;36333;51.382;0.016;2022-12-07T00:11:40;29.58;;;12.18;;
31083;SDS011;36333;51.382;0.016;2022-12-07T00:14:11;30.45;;;12.45;;
31083;SDS011;36333;51.382;0.016;2022-12-07T00:16:39;32.38;;;11.55;;
31083;SDS011;36333;51.382;0.016;2022-12-07T00:19:08;31.70;;;12.63;;
31083;SDS011;36333;51.382;0.016;2022-12-07T00:21:37;29.58;;;11.30;;
31083;SDS011;36333;51.382;0.016;2022-12-07T00:24:05;30.88;;;11.38;;
31083;SDS011;36333;51.382;0.016;2022-12-07T00:29:03;27.50;;;11.00;;
31083;SDS011;36333;51.382;0.016;2022-12-07T00:31:38;26.05;;;11.27;;
31083;SDS011;36333;51.382;0.016;2022-12-07T00:34:06;27.02;;;11.80;;
31083;SDS011;36333;51.382;0.016;2022-12-07T00:36:38;29.02;;;11.68;;
31083;SDS011;36333;51.382;0.016;2022-12-07T00:39:05;31.45;;;11.63;;
31083;SDS011;36333;51.382;0.016;2022-12-07T00:41:33;24.63;;;10.55;;
31083;SDS011;36333;51.382;0.016;2022-12-07T00:44:01;28.98;;;11.43;;
31083;SDS011;36333;51.382;0.016;2022-12-07T00:46:29;30.15;;;11.85;;
31083;SDS011;36333;51.382;0.016;2022-12-07T00:48:57;32.10;;;11.90;;
31083;SDS011;36333;51.382;0.016;2022-12-07T00:51:25;30.75;;;11.20;;
31083;SDS011;36333;51.382;0.016;2022-12-07T00:53:53;31.85;;;11.10;;
31083;SDS011;36333;51.382;0.016;2022-12-07T00:56:22;25.30;;;11.27;;
31083;SDS011;36333;51.382;0.016;2022-12-07T00:58:54;27.42;;;10.75;;
31083;SDS011;36333;51.382;0.016;2022-12-07T01:01:22;26.60;;;11.20;;
31083;SDS011;36333;51.382;0.016;2022-12-07T01:03:52;21.55;;;10.50;;
31083;SDS011;36333;51.382;0.016;2022-12-07T01:08:48;28.42;;;10.15;;
31083;SDS011;36333;51.382;0.016;2022-12-07T01:11:17;28.42;;;10.73;;
31083;SDS011;36333;51.382;0.016;2022-12-07T01:13:49;26.65;;;10.38;;
31083;SDS011;36333;51.382;0.016;2022-12-07T01:16:17;28.83;;;10.32;;
31083;SDS011;36333;51.382;0.016;2022-12-07T01:18:46;29.88;;;11.18;;
31083;SDS011;36333;51.382;0.016;2022-12-07T01:21:16;29.63;;;11.80;;
31083;SDS011;36333;51.382;0.016;2022-12-07T01:23:47;25.88;;;10.55;;
31083;SDS011;36333;51.382;0.016;2022-12-07T01:26:16;30.38;;;11.05;;
31083;SDS011;36333;51.382;0.016;2022-12-07T01:28:46;26.70;;;10.68;;
31083;SDS011;36333;51.382;0.016;2022-12-07T01:31:15;29.35;;;10.63;;
31083;SDS011;36333;51.382;0.016;2022-12-07T01:33:45;27.27;;;11.30;;
31083;SDS011;36333;51.382;0.016;2022-12-07T01:36:16;27.48;;;10.25;;
31083;SDS011;36333;51.382;0.016;2022-12-07T01:38:44;37.92;;;11.75;;
31083;SDS011;36333;51.382;0.016;2022-12-07T01:41:13;24.65;;;10.60;;
31083;SDS011;36333;51.382;0.016;2022-12-07T01:49:09;26.50;;;9.73;;
31083;SDS011;36333;51.382;0.016;2022-12-07T01:55:23;23.17;;;10.77;;
31083;SDS011;36333;51.382;0.016;2022-12-07T01:57:52;31.33;;;11.07;;
31083;SDS011;36333;51.382;0.016;2022-12-07T02:00:21;27.33;;;11.20;;
31083;SDS011;36333;51.382;0.016;2022-12-07T02:05:27;29.38;;;11.30;;
31083;SDS011;36333;51.382;0.016;2022-12-07T02:07:55;31.92;;;11.60;;
31083;SDS011;36333;51.382;0.016;2022-12-07T02:10:25;26.85;;;11.93;;
31083;SDS011;36333;51.382;0.016;2022-12-07T02:13:00;31.10;;;12.18;;
31083;SDS011;36333;51.382;0.016;2022-12-07T02:15:34;29.67;;;11.80;;
31083;SDS011;36333;51.382;0.016;2022-12-07T02:18:20;28.58;;;12.15;;
31083;SDS011;36333;51.382;0.016;2022-12-07T02:24:19;29.83;;;11.68;;
31083;SDS011;36333;51.382;0.016;2022-12-07T02:27:02;36.33;;;13.25;;
31083;SDS011;36333;51.382;0.016;2022-12-07T02:29:42;37.20;;;13.25;;
31083;SDS011;36333;51.382;0.016;2022-12-07T02:32:19;35.78;;;13.30;;
31083;SDS011;36333;51.382;0.016;2022-12-07T02:41:33;30.63;;;13.07;;
31083;SDS011;36333;51.382;0.016;2022-12-07T02:44:08;30.73;;;13.90;;
31083;SDS011;36333;51.382;0.016;2022-12-07T02:46:44;33.13;;;14.55;;
31083;SDS011;36333;51.382;0.016;2022-12-07T02:49:17;33.13;;;15.38;;
31083;SDS011;36333;51.382;0.016;2022-12-07T02:51:46;51.03;;;16.60;;
31083;SDS011;36333;51.382;0.016;2022-12-07T02:54:17;39.22;;;16.08;;
31083;SDS011;36333;51.382;0.016;2022-12-07T02:56:48;45.22;;;16.40;;
31083;SDS011;36333;51.382;0.016;2022-12-07T03:02:23;38.45;;;15.95;;
31083;SDS011;36333;51.382;0.016;2022-12-07T03:14:02;33.22;;;15.57;;
31083;SDS011;36333;51.382;0.016;2022-12-07T03:16:14;37.50;;;15.05;;
31083;SDS011;36333;51.382;0.016;2022-12-07T03:18:49;42.03;;;15.47;;
31083;SDS011;36333;51.382;0.016;2022-12-07T03:24:24;28.33;;;12.85;;
31083;SDS011;36333;51.382;0.016;2022-12-07T03:26:59;25.98;;;13.25;;
31083;SDS011;36333;51.382;0.016;2022-12-07T03:29:34;30.17;;;12.40;;
31083;SDS011;36333;51.382;0.016;2022-12-07T03:32:13;34.85;;;13.77;;
31083;SDS011;36333;51.382;0.016;2022-12-07T03:35:01;24.27;;;12.68;;
31083;SDS011;36333;51.382;0.016;2022-12-07T03:37:44;27.58;;;12.93;;
31083;SDS011;36333;51.382;0.016;2022-12-07T03:40:19;32.72;;;13.82;;
31083;SDS011;36333;51.382;0.016;2022-12-07T03:43:06;35.72;;;14.32;;
31083;SDS011;36333;51.382;0.016;2022-12-07T03:45:38;28.30;;;14.05;;
31083;SDS011;36333;51.382;0.016;2022-12-07T03:50:57;30.13;;;13.80;;
31083;SDS011;36333;51.382;0.016;2022-12-07T03:54:00;26.73;;;12.65;;
31083;SDS011;36333;51.382;0.016;2022-12-07T03:57:05;32.42;;;13.63;;
31083;SDS011;36333;51.382;0.016;2022-12-07T03:59:34;28.88;;;13.80;;
31083;SDS011;36333;51.382;0.016;2022-12-07T04:02:04;26.67;;;12.48;;
31083;SDS011;36333;51.382;0.016;2022-12-07T04:04:33;26.30;;;11.98;;
31083;SDS011;36333;51.382;0.016;2022-12-07T04:07:01;32.08;;;12.85;;
31083;SDS011;36333;51.382;0.016;2022-12-07T04:09:29;38.35;;;12.77;;
31083;SDS011;36333;51.382;0.016;2022-12-07T04:11:56;32.30;;;12.85;;
31083;SDS011;36333;51.382;0.016;2022-12-07T04:14:24;27.55;;;13.63;;
31083;SDS011;36333;51.382;0.016;2022-12-07T04:16:52;31.25;;;13.05;;
31083;SDS011;36333;51.382;0.016;2022-12-07T04:19:29;26.25;;;13.00;;
31083;SDS011;36333;51.382;0.016;2022-12-07T04:21:59;31.80;;;12.82;;
31083;SDS011;36333;51.382;0.016;2022-12-07T04:24:28;32.35;;;13.52;;
31083;SDS011;36333;51.382;0.016;2022-12-07T04:29:23;25.88;;;12.07;;
31083;SDS011;36333;51.382;0.016;2022-12-07T04:31:51;31.02;;;12.77;;
31083;SDS011;36333;51.382;0.016;2022-12-07T04:34:20;25.23;;;12.68;;
31083;SDS011;36333;51.382;0.016;2022-12-07T04:36:48;23.77;;;11.75;;
31083;SDS011;36333;51.382;0.016;2022-12-07T04:39:23;36.60;;;12.32;;
31083;SDS011;36333;51.382;0.016;2022-12-07T04:41:55;21.65;;;11.07;;
31083;SDS011;36333;51.382;0.016;2022-12-07T04:44:24;25.98;;;11.50;;
31083;SDS011;36333;51.382;0.016;2022-12-07T04:46:52;30.77;;;11.57;;
31083;SDS011;36333;51.382;0.016;2022-12-07T04:49:20;27.05;;;12.15;;
31083;SDS011;36333;51.382;0.016;2022-12-07T04:54:16;22.67;;;11.23;;
31083;SDS011;36333;51.382;0.016;2022-12-07T04:59:11;28.90;;;12.00;;
31083;SDS011;36333;51.382;0.016;2022-12-07T05:01:40;28.17;;;12.18;;
31083;SDS011;36333;51.382;0.016;2022-12-07T05:04:08;32.95;;;12.32;;
31083;SDS011;36333;51.382;0.016;2022-12-07T05:06:36;29.30;;;12.13;;
31083;SDS011;36333;51.382;0.016;2022-12-07T05:09:04;26.40;;;12.40;;
31083;SDS011;36333;51.382;0.016;2022-12-07T05:11:31;34.95;;;12.38;;
31083;SDS011;36333;51.382;0.016;2022-12-07T05:16:37;28.33;;;9.90;;
31083;SDS011;36333;51.382;0.016;2022-12-07T05:19:06;23.50;;;9.98;;
31083;SDS011;36333;51.382;0.016;2022-12-07T05:21:34;22.77;;;10.30;;
31083;SDS011;36333;51.382;0.016;2022-12-07T05:26:30;21.38;;;10.20;;
31083;SDS011;36333;51.382;0.016;2022-12-07T05:28:58;27.70;;;11.15;;
31083;SDS011;36333;51.382;0.016;2022-12-07T05:31:26;21.63;;;10.52;;
31083;SDS011;36333;51.382;0.016;2022-12-07T05:36:21;21.52;;;8.40;;
31083;SDS011;36333;51.382;0.016;2022-12-07T05:38:49;20.40;;;9.05;;
31083;SDS011;36333;51.382;0.016;2022-12-07T05:41:18;20.38;;;8.82;;
31083;SDS011;36333;51.382;0.016;2022-12-07T05:44:04;25.13;;;9.23;;
31083;SDS011;36333;51.382;0.016;2022-12-07T05:46:32;22.98;;;9.30;;
31083;SDS011;36333;51.382;0.016;2022-12-07T05:49:00;22.20;;;9.77;;
31083;SDS011;36333;51.382;0.016;2022-12-07T05:51:30;25.02;;;9.52;;
31083;SDS011;36333;51.382;0.016;2022-12-07T05:53:58;23.38;;;10.23;;
31083;SDS011;36333;51.382;0.016;2022-12-07T05:56:25;20.38;;;9.32;;
31083;SDS011;36333;51.382;0.016;2022-12-07T05:58:54;26.05;;;9.70;;
31083;SDS011;36333;51.382;0.016;2022-12-07T06:01:40;24.50;;;9.55;;
31083;SDS011;36333;51.382;0.016;2022-12-07T06:04:07;17.85;;;9.55;;
31083;SDS011;36333;51.382;0.016;2022-12-07T06:06:35;22.20;;;9.10;;
31083;SDS011;36333;51.382;0.016;2022-12-07T06:09:03;20.75;;;9.13;;
31083;SDS011;36333;51.382;0.016;2022-12-07T06:11:31;21.58;;;9.88;;
31083;SDS011;36333;51.382;0.016;2022-12-07T06:14:17;20.33;;;9.82;;
31083;SDS011;36333;51.382;0.016;2022-12-07T06:16:44;21.35;;;10.10;;
31083;SDS011;36333;51.382;0.016;2022-12-07T06:19:12;23.25;;;10.27;;
31083;SDS011;36333;51.382;0.016;2022-12-07T06:21:40;23.90;;;10.40;;
31083;SDS011;36333;51.382;0.016;2022-12-07T06:24:09;24.00;;;9.75;;
31083;SDS011;36333;51.382;0.016;2022-12-07T06:26:41;20.48;;;8.77;;
31083;SDS011;36333;51.382;0.016;2022-12-07T06:29:09;21.27;;;8.20;;
31083;SDS011;36333;51.382;0.016;2022-12-07T06:31:38;20.92;;;8.75;;
31083;SDS011;36333;51.382;0.016;2022-12-07T06:34:07;23.08;;;9.45;;
31083;SDS011;36333;51.382;0.016;2022-12-07T06:36:39;24.42;;;10.05;;
31083;SDS011;36333;51.382;0.016;2022-12-07T06:39:07;24.02;;;9.35;;
31083;SDS011;36333;51.382;0.016;2022-12-07T06:41:36;22.02;;;9.60;;
31083;SDS011;36333;51.382;0.016;2022-12-07T06:44:05;22.02;;;9.55;;
31083;SDS011;36333;51.382;0.016;2022-12-07T06:46:33;19.42;;;9.10;;
31083;SDS011;36333;51.382;0.016;2022-12-07T06:49:03;22.55;;;9.93;;
31083;SDS011;36333;51.382;0.016;2022-12-07T06:51:31;21.83;;;9.25;;
31083;SDS011;36333;51.382;0.016;2022-12-07T06:54:00;22.52;;;9.75;;
31083;SDS011;36333;51.382;0.016;2022-12-07T06:56:27;24.65;;;10.52;;
31083;SDS011;36333;51.382;0.016;2022-12-07T06:58:55;24.83;;;9.95;;
31083;SDS011;36333;51.382;0.016;2022-12-07T07:01:23;22.80;;;10.40;;
31083;SDS011;36333;51.382;0.016;2022-12-07T07:03:50;24.48;;;10.23;;
31083;SDS011;36333;51.382;0.016;2022-12-07T07:06:19;23.40;;;11.10;;
31083;SDS011;36333;51.382;0.016;2022-12-07T07:08:47;24.48;;;10.23;;
31083;SDS011;36333;51.382;0.016;2022-12-07T07:11:14;26.80;;;10.32;;
31083;SDS011;36333;51.382;0.016;2022-12-07T07:13:42;20.60;;;10.57;;
31083;SDS011;36333;51.382;0.016;2022-12-07T07:16:09;23.40;;;10.82;;
31083;SDS011;36333;51.382;0.016;2022-12-07T07:18:37;25.95;;;10.63;;
31083;SDS011;36333;51.382;0.016;2022-12-07T07:21:05;27.73;;;11.88;;
31083;SDS011;36333;51.382;0.016;2022-12-07T07:23:32;22.85;;;10.93;;
31083;SDS011;36333;51.382;0.016;2022-12-07T07:26:00;27.73;;;10.82;;
31083;SDS011;36333;51.382;0.016;2022-12-07T07:28:27;31.08;;;11.55;;
31083;SDS011;36333;51.382;0.016;2022-12-07T07:30:55;33.95;;;11.88;;
31083;SDS011;36333;51.382;0.016;2022-12-07T07:33:22;26.60;;;11.88;;
31083;SDS011;36333;51.382;0.016;2022-12-07T07:35:50;28.58;;;10.80;;
31083;SDS011;36333;51.382;0.016;2022-12-07T07:38:18;21.80;;;10.82;;
31083;SDS011;36333;51.382;0.016;2022-12-07T07:40:45;26.90;;;11.98;;
31083;SDS011;36333;51.382;0.016;2022-12-07T07:43:13;28.45;;;10.88;;
31083;SDS011;36333;51.382;0.016;2022-12-07T07:45:40;27.88;;;10.80;;
31083;SDS011;36333;51.382;0.016;2022-12-07T07:48:08;25.08;;;11.23;;
31083;SDS011;36333;51.382;0.016;2022-12-07T07:50:35;26.40;;;12.23;;
31083;SDS011;36333;51.382;0.016;2022-12-07T07:53:03;30.52;;;12.07;;
31083;SDS011;36333;51.382;0.016;2022-12-07T07:55:30;23.83;;;11.10;;
31083;SDS011;36333;51.382;0.016;2022-12-07T07:57:58;24.90;;;11.40;;
31083;SDS011;36333;51.382;0.016;2022-12-07T08:00:25;25.08;;;11.55;;
31083;SDS011;36333;51.382;0.016;2022-12-07T08:02:53;28.83;;;12.30;;
31083;SDS011;36333;51.382;0.016;2022-12-07T08:05:21;28.85;;;11.15;;
31083;SDS011;36333;51.382;0.016;2022-12-07T08:07:49;32.47;;;12.05;;
31083;SDS011;36333;51.382;0.016;2022-12-07T08:12:45;26.70;;;11.50;;
31083;SDS011;36333;51.382;0.016;2022-12-07T08:15:35;27.08;;;11.10;;
31083;SDS011;36333;51.382;0.016;2022-12-07T08:18:04;26.85;;;11.82;;
31083;SDS011;36333;51.382;0.016;2022-12-07T08:20:33;29.27;;;10.82;;
31083;SDS011;36333;51.382;0.016;2022-12-07T08:23:01;27.63;;;11.07;;
31083;SDS011;36333;51.382;0.016;2022-12-07T08:25:29;22.73;;;10.35;;
31083;SDS011;36333;51.382;0.016;2022-12-07T08:27:57;23.23;;;9.57;;
31083;SDS011;36333;51.382;0.016;2022-12-07T08:30:24;25.33;;;9.57;;
31083;SDS011;36333;51.382;0.016;2022-12-07T08:32:52;20.30;;;9.90;;
31083;SDS011;36333;51.382;0.016;2022-12-07T08:35:19;25.02;;;9.63;;
31083;SDS011;36333;51.382;0.016;2022-12-07T08:40:15;22.83;;;9.50;;
31083;SDS011;36333;51.382;0.016;2022-12-07T08:42:49;21.27;;;9.48;;
31083;SDS011;36333;51.382;0.016;2022-12-07T08:45:18;23.20;;;9.02;;
31083;SDS011;36333;51.382;0.016;2022-12-07T08:50:33;21.67;;;9.52;;
31083;SDS011;36333;51.382;0.016;2022-12-07T08:55:33;22.73;;;10.07;;
31083;SDS011;36333;51.382;0.016;2022-12-07T08:58:01;21.02;;;10.02;;
31083;SDS011;36333;51.382;0.016;2022-12-07T09:00:30;18.30;;;9.82;;
31083;SDS011;36333;51.382;0.016;2022-12-07T09:02:57;24.92;;;10.75;;
31083;SDS011;36333;51.382;0.016;2022-12-07T09:05:25;22.70;;;10.90;;
31083;SDS011;36333;51.382;0.016;2022-12-07T09:10:31;23.35;;;7.93;;
31083;SDS011;36333;51.382;0.016;2022-12-07T09:13:01;17.65;;;7.55;;
31083;SDS011;36333;51.382;0.016;2022-12-07T09:15:29;22.25;;;8.02;;
31083;SDS011;36333;51.382;0.016;2022-12-07T09:17:58;20.45;;;7.35;;
31083;SDS011;36333;51.382;0.016;2022-12-07T09:20:26;20.17;;;8.20;;
31083;SDS011;36333;51.382;0.016;2022-12-07T09:25:30;19.98;;;7.75;;
31083;SDS011;36333;51.382;0.016;2022-12-07T09:28:02;20.88;;;7.45;;
31083;SDS011;36333;51.382;0.016;2022-12-07T09:30:37;13.68;;;7.07;;
31083;SDS011;36333;51.382;0.016;2022-12-07T09:33:35;17.33;;;8.15;;
31083;SDS011;36333;51.382;0.016;2022-12-07T09:36:06;16.40;;;8.25;;
31083;SDS011;36333;51.382;0.016;2022-12-07T09:38:37;19.35;;;7.65;;
31083;SDS011;36333;51.382;0.016;2022-12-07T09:41:05;17.80;;;6.90;;
31083;SDS011;36333;51.382;0.016;2022-12-07T09:43:35;16.85;;;7.47;;
31083;SDS011;36333;51.382;0.016;2022-12-07T09:46:04;24.77;;;7.38;;
31083;SDS011;36333;51.382;0.016;2022-12-07T09:51:19;18.80;;;6.15;;
31083;SDS011;36333;51.382;0.016;2022-12-07T09:53:52;18.02;;;6.93;;
31083;SDS011;36333;51.382;0.016;2022-12-07T09:56:22;18.77;;;6.97;;
31083;SDS011;36333;51.382;0.016;2022-12-07T09:59:16;16.42;;;6.22;;
31083;SDS011;36333;51.382;0.016;2022-12-07T10:01:46;22.70;;;6.60;;
31083;SDS011;36333;51.382;0.016;2022-12-07T10:04:19;22.02;;;7.05;;
31083;SDS011;36333;51.382;0.016;2022-12-07T10:06:52;18.38;;;7.18;;
31083;SDS011;36333;51.382;0.016;2022-12-07T10:09:25;18.95;;;7.43;;
31083;SDS011;36333;51.382;0.016;2022-12-07T10:12:03;26.63;;;8.30;;
31083;SDS011;36333;51.382;0.016;2022-12-07T10:14:48;19.27;;;7.47;;
31083;SDS011;36333;51.382;0.016;2022-12-07T10:17:38;23.50;;;8.45;;
31083;SDS011;36333;51.382;0.016;2022-12-07T10:20:22;21.77;;;8.20;;
31083;SDS011;36333;51.382;0.016;2022-12-07T10:22:59;20.52;;;7.75;;
31083;SDS011;36333;51.382;0.016;2022-12-07T10:25:35;24.70;;;7.65;;
31083;SDS011;36333;51.382;0.016;2022-12-07T10:28:18;21.67;;;8.50;;
31083;SDS011;36333;51.382;0.016;2022-12-07T10:30:51;21.92;;;8.20;;
31083;SDS011;36333;51.382;0.016;2022-12-07T10:36:18;15.85;;;8.55;;
31083;SDS011;36333;51.382;0.016;2022-12-07T10:39:17;19.70;;;8.73;;
31083;SDS011;36333;51.382;0.016;2022-12-07T10:42:01;18.95;;;7.65;;
31083;SDS011;36333;51.382;0.016;2022-12-07T10:44:30;17.33;;;7.43;;
31083;SDS011;36333;51.382;0.016;2022-12-07T10:49:55;13.35;;;6.93;;
31083;SDS011;36333;51.382;0.016;2022-12-07T10:55:41;19.38;;;7.40;;
31083;SDS011;36333;51.382;0.016;2022-12-07T10:58:28;18.08;;;7.22;;
31083;SDS011;36333;51.382;0.016;2022-12-07T11:10:02;20.58;;;7.25;;
31083;SDS011;36333;51.382;0.016;2022-12-07T11:12:47;16.80;;;6.50;;
31083;SDS011;36333;51.382;0.016;2022-12-07T11:22:06;17.35;;;6.85;;
31083;SDS011;36333;51.382;0.016;2022-12-07T11:25:02;21.73;;;7.10;;
31083;SDS011;36333;51.382;0.016;2022-12-07T11:37:13;21.83;;;7.47;;
31083;SDS011;36333;51.382;0.016;2022-12-07T11:42:51;17.92;;;6.63;;
31083;SDS011;36333;51.382;0.016;2022-12-07T11:45:27;17.05;;;7.57;;
31083;SDS011;36333;51.382;0.016;2022-12-07T11:48:04;17.70;;;7.30;;
31083;SDS011;36333;51.382;0.016;2022-12-07T11:50:45;17.15;;;7.15;;
31083;SDS011;36333;51.382;0.016;2022-12-07T11:53:41;15.75;;;6.60;;
31083;SDS011;36333;51.382;0.016;2022-12-07T11:56:14;17.52;;;7.18;;
31083;SDS011;36333;51.382;0.016;2022-12-07T12:09:09;19.20;;;6.70;;
31083;SDS011;36333;51.382;0.016;2022-12-07T12:21:48;19.13;;;6.72;;
31083;SDS011;36333;51.382;0.016;2022-12-07T12:24:33;16.95;;;7.63;;
31083;SDS011;36333;51.382;0.016;2022-12-07T12:27:15;17.70;;;7.38;;
31083;SDS011;36333;51.382;0.016;2022-12-07T12:29:54;19.85;;;7.20;;
31083;SDS011;36333;51.382;0.016;2022-12-07T12:39:10;21.73;;;7.57;;
31083;SDS011;36333;51.382;0.016;2022-12-07T12:52:49;20.45;;;7.82;;
31083;SDS011;36333;51.382;0.016;2022-12-07T12:55:00;20.17;;;7.43;;
31083;SDS011;36333;51.382;0.016;2022-12-07T13:02:38;17.52;;;7.60;;
31083;SDS011;36333;51.382;0.016;2022-12-07T13:15:50;18.33;;;8.52;;
31083;SDS011;36333;51.382;0.016;2022-12-07T13:20:58;25.02;;;9.40;;
31083;SDS011;36333;51.382;0.016;2022-12-07T13:26:39;21.02;;;8.35;;
31083;SDS011;36333;51.382;0.016;2022-12-07T13:31:51;22.05;;;9.93;;
31083;SDS011;36333;51.382;0.016;2022-12-07T13:34:35;30.85;;;8.95;;
31083;SDS011;36333;51.382;0.016;2022-12-07T13:37:21;21.95;;;8.20;;
31083;SDS011;36333;51.382;0.016;2022-12-07T13:40:19;23.70;;;9.20;;
31083;SDS011;36333;51.382;0.016;2022-12-07T13:43:01;24.38;;;9.25;;
31083;SDS011;36333;51.382;0.016;2022-12-07T13:45:34;19.40;;;8.55;;
31083;SDS011;36333;51.382;0.016;2022-12-07T13:51:03;22.35;;;8.40;;
31083;SDS011;36333;51.382;0.016;2022-12-07T13:53:59;27.10;;;8.85;;
31083;SDS011;36333;51.382;0.016;2022-12-07T13:57:12;22.02;;;9.20;;
31083;SDS011;36333;51.382;0.016;2022-12-07T13:59:43;20.15;;;8.27;;
31083;SDS011;36333;51.382;0.016;2022-12-07T14:09:17;16.58;;;5.97;;
31083;SDS011;36333;51.382;0.016;2022-12-07T14:12:24;18.10;;;6.30;;
31083;SDS011;36333;51.382;0.016;2022-12-07T14:15:35;17.33;;;6.80;;
31083;SDS011;36333;51.382;0.016;2022-12-07T14:18:24;14.30;;;6.82;;
31083;SDS011;36333;51.382;0.016;2022-12-07T14:21:46;19.15;;;7.30;;
31083;SDS011;36333;51.382;0.016;2022-12-07T14:25:50;18.90;;;6.10;;
31083;SDS011;36333;51.382;0.016;2022-12-07T14:34:02;22.10;;;5.30;;
31083;SDS011;36333;51.382;0.016;2022-12-07T14:36:32;18.95;;;5.97;;
31083;SDS011;36333;51.382;0.016;2022-12-07T14:39:05;17.60;;;5.53;;
31083;SDS011;36333;51.382;0.016;2022-12-07T14:50:46;17.63;;;5.13;;
31083;SDS011;36333;51.382;0.016;2022-12-07T14:53:50;13.15;;;4.75;;
31083;SDS011;36333;51.382;0.016;2022-12-07T14:56:37;15.10;;;5.30;;
31083;SDS011;36333;51.382;0.016;2022-12-07T15:02:30;16.70;;;6.40;;
31083;SDS011;36333;51.382;0.016;2022-12-07T15:04:58;17.10;;;6.68;;
31083;SDS011;36333;51.382;0.016;2022-12-07T15:07:49;18.45;;;5.97;;
31083;SDS011;36333;51.382;0.016;2022-12-07T15:10:29;15.70;;;6.60;;
31083;SDS011;36333;51.382;0.016;2022-12-07T15:13:40;12.43;;;5.45;;
31083;SDS011;36333;51.382;0.016;2022-12-07T15:17:31;14.20;;;5.75;;
31083;SDS011;36333;51.382;0.016;2022-12-07T15:21:24;17.70;;;6.53;;
31083;SDS011;36333;51.382;0.016;2022-12-07T15:24:33;23.25;;;7.97;;
31083;SDS011;36333;51.382;0.016;2022-12-07T15:27:49;21.65;;;7.68;;
31083;SDS011;36333;51.382;0.016;2022-12-07T15:30:28;19.63;;;7.43;;
31083;SDS011;36333;51.382;0.016;2022-12-07T15:54:36;24.73;;;10.05;;
31083;SDS011;36333;51.382;0.016;2022-12-07T15:57:30;23.20;;;10.02;;
31083;SDS011;36333;51.382;0.016;2022-12-07T16:03:41;25.23;;;9.00;;
31083;SDS011;36333;51.382;0.016;2022-12-07T16:11:06;20.92;;;7.70;;
31083;SDS011;36333;51.382;0.016;2022-12-07T16:14:09;19.23;;;8.30;;
31083;SDS011;36333;51.382;0.016;2022-12-07T16:16:39;23.42;;;8.75;;
31083;SDS011;36333;51.382;0.016;2022-12-07T16:19:39;22.10;;;7.95;;
31083;SDS011;36333;51.382;0.016;2022-12-07T16:23:34;17.05;;;7.85;;
31083;SDS011;36333;51.382;0.016;2022-12-07T16:26:12;21.05;;;8.55;;
31083;SDS011;36333;51.382;0.016;2022-12-07T16:29:04;19.85;;;8.73;;
31083;SDS011;36333;51.382;0.016;2022-12-07T16:31:33;27.48;;;12.80;;
31083;SDS011;36333;51.382;0.016;2022-12-07T16:37:15;26.48;;;9.45;;
31083;SDS011;36333;51.382;0.016;2022-12-07T16:40:22;27.10;;;8.63;;
31083;SDS011;36333;51.382;0.016;2022-12-07T16:43:22;21.13;;;8.60;;
31083;SDS011;36333;51.382;0.016;2022-12-07T16:46:11;22.17;;;10.18;;
31083;SDS011;36333;51.382;0.016;2022-12-07T16:48:47;24.55;;;9.82;;
31083;SDS011;36333;51.382;0.016;2022-12-07T16:51:26;30.20;;;11.20;;
31083;SDS011;36333;51.382;0.016;2022-12-07T16:57:45;29.65;;;11.13;;
31083;SDS011;36333;51.382;0.016;2022-12-07T17:00:16;27.65;;;13.55;;
31083;SDS011;36333;51.382;0.016;2022-12-07T17:02:45;32.15;;;13.65;;
31083;SDS011;36333;51.382;0.016;2022-12-07T17:05:14;27.80;;;12.02;;
31083;SDS011;36333;51.382;0.016;2022-12-07T17:07:41;29.77;;;12.07;;
31083;SDS011;36333;51.382;0.016;2022-12-07T17:10:09;31.27;;;13.18;;
31083;SDS011;36333;51.382;0.016;2022-12-07T17:12:42;28.58;;;12.57;;
31083;SDS011;36333;51.382;0.016;2022-12-07T17:15:17;28.50;;;12.13;;
31083;SDS011;36333;51.382;0.016;2022-12-07T17:17:54;26.83;;;12.10;;
31083;SDS011;36333;51.382;0.016;2022-12-07T17:20:24;24.15;;;11.32;;
31083;SDS011;36333;51.382;0.016;2022-12-07T17:22:54;20.95;;;10.10;;
31083;SDS011;36333;51.382;0.016;2022-12-07T17:25:21;25.38;;;10.90;;
31083;SDS011;36333;51.382;0.016;2022-12-07T17:27:49;25.75;;;10.68;;
31083;SDS011;36333;51.382;0.016;2022-12-07T17:30:17;26.85;;;11.25;;
31083;SDS011;36333;51.382;0.016;2022-12-07T17:32:47;27.00;;;10.93;;
31083;SDS011;36333;51.382;0.016;2022-12-07T17:35:23;35.58;;;13.07;;
31083;SDS011;36333;51.382;0.016;2022-12-07T17:37:53;29.40;;;11.55;;
31083;SDS011;36333;51.382;0.016;2022-12-07T17:40:24;28.98;;;12.25;;
31083;SDS011;36333;51.382;0.016;2022-12-07T17:42:55;31.23;;;13.02;;
31083;SDS011;36333;51.382;0.016;2022-12-07T17:45:27;40.20;;;15.98;;
31083;SDS011;36333;51.382;0.016;2022-12-07T17:47:55;29.27;;;14.88;;
31083;SDS011;36333;51.382;0.016;2022-12-07T17:50:22;33.97;;;15.45;;
31083;SDS011;36333;51.382;0.016;2022-12-07T17:53:13;38.95;;;13.77;;
31083;SDS011;36333;51.382;0.016;2022-12-07T17:55:41;38.85;;;16.08;;
31083;SDS011;36333;51.382;0.016;2022-12-07T17:58:38;39.65;;;16.17;;
31083;SDS011;36333;51.382;0.016;2022-12-07T18:01:20;39.50;;;16.25;;
31083;SDS011;36333;51.382;0.016;2022-12-07T18:03:51;42.35;;;18.17;;
31083;SDS011;36333;51.382;0.016;2022-12-07T18:08:55;40.33;;;19.90;;
31083;SDS011;36333;51.382;0.016;2022-12-07T18:11:35;43.00;;;20.17;;
31083;SDS011;36333;51.382;0.016;2022-12-07T18:14:23;41.70;;;17.27;;
31083;SDS011;36333;51.382;0.016;2022-12-07T18:17:03;42.80;;;16.50;;
31083;SDS011;36333;51.382;0.016;2022-12-07T18:19:31;32.20;;;15.43;;
31083;SDS011;36333;51.382;0.016;2022-12-07T18:22:05;39.53;;;15.27;;
31083;SDS011;36333;51.382;0.016;2022-12-07T18:24:33;41.65;;;16.02;;
31083;SDS011;36333;51.382;0.016;2022-12-07T18:27:06;41.47;;;16.35;;
31083;SDS011;36333;51.382;0.016;2022-12-07T18:29:34;39.70;;;16.73;;
31083;SDS011;36333;51.382;0.016;2022-12-07T18:32:04;33.80;;;14.32;;
31083;SDS011;36333;51.382;0.016;2022-12-07T18:34:52;41.10;;;15.07;;
31083;SDS011;36333;51.382;0.016;2022-12-07T18:37:49;45.22;;;16.38;;
31083;SDS011;36333;51.382;0.016;2022-12-07T18:40:30;37.25;;;16.02;;
31083;SDS011;36333;51.382;0.016;2022-12-07T18:43:21;39.92;;;17.08;;
31083;SDS011;36333;51.382;0.016;2022-12-07T18:45:47;43.47;;;16.60;;
31083;SDS011;36333;51.382;0.016;2022-12-07T18:48:22;42.28;;;16.48;;
31083;SDS011;36333;51.382;0.016;2022-12-07T18:50:59;43.80;;;16.23;;
31083;SDS011;36333;51.382;0.016;2022-12-07T18:53:29;40.63;;;15.10;;
31083;SDS011;36333;51.382;0.016;2022-12-07T18:56:05;40.03;;;15.25;;
31083;SDS011;36333;51.382;0.016;2022-12-07T18:58:36;35.97;;;15.52;;
31083;SDS011;36333;51.382;0.016;2022-12-07T19:01:03;56.78;;;16.75;;
31083;SDS011;36333;51.382;0.016;2022-12-07T19:06:06;36.40;;;14.82;;
31083;SDS011;36333;51.382;0.016;2022-12-07T19:08:33;37.10;;;13.48;;
31083;SDS011;36333;51.382;0.016;2022-12-07T19:11:03;35.00;;;14.95;;
31083;SDS011;36333;51.382;0.016;2022-12-07T19:13:51;40.47;;;14.15;;
31083;SDS011;36333;51.382;0.016;2022-12-07T19:16:18;36.22;;;13.70;;
31083;SDS011;36333;51.382;0.016;2022-12-07T19:18:46;37.78;;;14.52;;